createdAt,value
2022-12-01T00:01:40.217Z,56.88
2022-12-01T00:04:07.762Z,57.40
2022-12-01T00:06:34.226Z,56.17
2022-12-01T00:09:00.627Z,56.53
2022-12-01T00:11:27.057Z,58.05
2022-12-01T00:13:53.489Z,51.28
2022-12-01T00:16:19.964Z,52.67
2022-12-01T00:18:49.638Z,49.13
2022-12-01T00:21:19.834Z,59.72
2022-12-01T00:23:47.053Z,55.75
2022-12-01T00:26:13.979Z,46.22
2022-12-01T00:28:40.400Z,52.00
2022-12-01T00:31:10.256Z,51.75
2022-12-01T00:36:03.344Z,48.17
2022-12-01T00:38:29.775Z,56.47
2022-12-01T00:40:56.231Z,52.00
2022-12-01T00:43:22.627Z,51.78
2022-12-01T00:45:49.347Z,47.05
2022-12-01T00:48:16.201Z,52.70
2022-12-01T00:50:42.599Z,49.80
2022-12-01T00:53:08.983Z,57.67
2022-12-01T00:55:35.412Z,54.15
2022-12-01T00:58:01.803Z,57.63
2022-12-01T01:00:28.516Z,53.35
2022-12-01T01:02:55.323Z,59.63
2022-12-01T01:05:21.807Z,50.17
2022-12-01T01:07:48.297Z,50.83
2022-12-01T01:10:14.783Z,53.25
2022-12-01T01:12:41.173Z,55.17
2022-12-01T01:15:07.962Z,50.92
2022-12-01T01:17:34.377Z,48.22
2022-12-01T01:20:00.812Z,49.97
2022-12-01T01:22:27.235Z,52.00
2022-12-01T01:24:53.631Z,53.55
2022-12-01T01:27:20.066Z,52.65
2022-12-01T01:29:46.741Z,53.25
2022-12-01T01:32:13.292Z,57.17
2022-12-01T01:34:39.718Z,50.72
2022-12-01T01:37:06.121Z,47.63
2022-12-01T01:39:32.530Z,51.42
2022-12-01T01:41:58.902Z,54.25
2022-12-01T01:44:49.915Z,56.10
2022-12-01T01:47:18.022Z,50.15
2022-12-01T01:49:44.435Z,54.13
2022-12-01T01:52:10.849Z,53.80
2022-12-01T01:54:42.307Z,61.65
2022-12-01T01:57:09.340Z,51.90
2022-12-01T01:59:44.131Z,56.47
2022-12-01T02:02:11.427Z,54.97
2022-12-01T02:04:39.673Z,51.85
2022-12-01T02:07:06.847Z,53.17
2022-12-01T02:09:33.249Z,51.80
2022-12-01T02:12:24.979Z,54.33
2022-12-01T02:15:16.049Z,49.38
2022-12-01T02:17:42.343Z,51.08
2022-12-01T02:20:30.307Z,47.13
2022-12-01T02:23:08.502Z,50.20
2022-12-01T02:25:45.548Z,50.83
2022-12-01T02:28:42.930Z,49.60
2022-12-01T02:31:27.291Z,59.03
2022-12-01T02:34:08.324Z,58.03
2022-12-01T02:36:37.009Z,60.95
2022-12-01T02:39:14.972Z,50.70
2022-12-01T02:41:55.925Z,57.20
2022-12-01T02:44:30.094Z,55.97
2022-12-01T02:47:15.755Z,55.20
2022-12-01T02:49:45.059Z,54.40
2022-12-01T02:52:11.450Z,51.63
2022-12-01T02:54:37.863Z,47.70
2022-12-01T02:57:04.230Z,54.47
2022-12-01T02:59:30.678Z,55.13
2022-12-01T03:02:18.667Z,55.58
2022-12-01T03:05:09.886Z,49.55
2022-12-01T03:07:49.187Z,50.13
2022-12-01T03:10:23.730Z,56.80
2022-12-01T03:12:56.133Z,55.95
2022-12-01T03:15:51.805Z,60.65
2022-12-01T03:18:28.049Z,54.45
2022-12-01T03:21:02.175Z,53.88
2022-12-01T03:23:30.302Z,59.05
2022-12-01T03:25:56.766Z,61.25
2022-12-01T03:28:27.063Z,53.90
2022-12-01T03:30:53.509Z,60.63
2022-12-01T03:33:44.685Z,53.25
2022-12-01T03:36:20.959Z,55.65
2022-12-01T03:38:50.690Z,55.92
2022-12-01T03:41:19.207Z,53.78
2022-12-01T03:43:51.334Z,56.20
2022-12-01T03:46:25.271Z,57.72
2022-12-01T03:48:51.699Z,59.83
2022-12-01T03:51:25.682Z,53.38
2022-12-01T03:54:07.741Z,58.92
2022-12-01T03:56:37.631Z,56.40
2022-12-01T04:01:31.751Z,55.15
2022-12-01T04:04:08.555Z,57.72
2022-12-01T04:06:35.019Z,53.88
2022-12-01T04:09:01.475Z,52.95
2022-12-01T04:11:32.466Z,52.75
2022-12-01T04:13:59.363Z,55.97
2022-12-01T04:16:25.787Z,51.90
2022-12-01T04:18:52.223Z,58.80
2022-12-01T04:21:18.610Z,59.83
2022-12-01T04:23:45.019Z,58.17
2022-12-01T04:26:15.788Z,63.63
2022-12-01T04:28:42.483Z,56.13
2022-12-01T04:31:08.959Z,54.22
2022-12-01T04:33:35.406Z,55.72
2022-12-01T04:36:01.909Z,61.67
2022-12-01T04:38:30.870Z,57.05
2022-12-01T04:40:57.630Z,57.80
2022-12-01T04:43:24.053Z,57.67
2022-12-01T04:45:50.422Z,61.60
2022-12-01T04:48:16.852Z,57.25
2022-12-01T04:50:43.236Z,56.38
2022-12-01T04:53:09.672Z,58.78
2022-12-01T04:55:38.853Z,62.20
2022-12-01T04:58:05.460Z,55.30
2022-12-01T05:00:32.230Z,59.03
2022-12-01T05:02:59.155Z,61.25
2022-12-01T05:05:25.574Z,57.22
2022-12-01T05:07:52.017Z,57.00
2022-12-01T05:10:18.502Z,61.63
2022-12-01T05:12:45.621Z,58.35
2022-12-01T05:15:12.609Z,67.10
2022-12-01T05:17:39.008Z,58.47
2022-12-01T05:20:06.102Z,60.00
2022-12-01T05:23:03.859Z,65.43
2022-12-01T05:25:19.197Z,54.70
2022-12-01T05:27:45.594Z,58.20
2022-12-01T05:30:12.156Z,61.50
2022-12-01T05:32:38.528Z,56.05
2022-12-01T05:35:05.369Z,61.78
2022-12-01T05:37:31.783Z,62.33
2022-12-01T05:39:58.179Z,66.05
2022-12-01T05:42:24.575Z,58.97
2022-12-01T05:44:50.983Z,64.60
2022-12-01T05:47:17.504Z,57.38
2022-12-01T05:49:43.918Z,58.03
2022-12-01T05:52:10.375Z,54.45
2022-12-01T05:54:36.788Z,61.60
2022-12-01T05:57:03.284Z,67.43
2022-12-01T05:59:29.710Z,58.30
2022-12-01T06:01:56.198Z,66.38
2022-12-01T06:04:22.788Z,67.63
2022-12-01T06:06:49.353Z,65.38
2022-12-01T06:09:15.821Z,62.20
2022-12-01T06:11:42.366Z,74.63
2022-12-01T06:14:08.774Z,60.75
2022-12-01T06:16:35.435Z,56.53
2022-12-01T06:19:01.898Z,66.32
2022-12-01T06:21:28.322Z,63.67
2022-12-01T06:23:54.737Z,64.13
2022-12-01T06:26:21.157Z,60.35
2022-12-01T06:28:47.540Z,65.20
2022-12-01T06:31:14.008Z,65.68
2022-12-01T06:33:40.441Z,58.45
2022-12-01T06:36:07.277Z,55.25
2022-12-01T06:38:34.655Z,64.55
2022-12-01T06:41:01.344Z,59.90
2022-12-01T06:43:27.803Z,54.22
2022-12-01T06:46:00.880Z,58.50
2022-12-01T06:48:28.252Z,50.97
2022-12-01T06:50:59.888Z,57.88
2022-12-01T06:53:26.295Z,61.20
2022-12-01T06:55:52.795Z,50.75
2022-12-01T06:58:19.278Z,57.55
2022-12-01T07:00:51.778Z,60.72
2022-12-01T07:03:18.614Z,56.42
2022-12-01T07:05:45.007Z,53.47
2022-12-01T07:08:11.451Z,58.92
2022-12-01T07:10:37.898Z,57.95
2022-12-01T07:13:04.319Z,57.75
2022-12-01T07:15:30.758Z,53.72
2022-12-01T07:17:57.154Z,58.53
2022-12-01T07:20:23.563Z,56.03
2022-12-01T07:22:49.979Z,65.90
2022-12-01T07:25:16.450Z,53.28
2022-12-01T07:27:45.655Z,65.82
2022-12-01T07:30:12.535Z,57.17
2022-12-01T07:32:41.017Z,57.72
2022-12-01T07:35:10.511Z,56.72
2022-12-01T07:37:39.406Z,55.83
2022-12-01T07:40:06.585Z,56.83
2022-12-01T07:42:32.982Z,62.95
2022-12-01T07:44:59.413Z,49.97
2022-12-01T07:47:26.948Z,59.38
2022-12-01T07:49:53.355Z,60.17
2022-12-01T07:52:19.773Z,61.63
2022-12-01T07:54:46.207Z,56.90
2022-12-01T07:57:12.719Z,59.00
2022-12-01T07:59:39.123Z,57.72
2022-12-01T08:02:05.874Z,65.40
2022-12-01T08:04:32.342Z,69.75
2022-12-01T08:07:00.827Z,51.45
2022-12-01T08:09:27.234Z,57.50
2022-12-01T08:11:53.660Z,55.40
2022-12-01T08:14:20.122Z,54.38
2022-12-01T08:16:48.350Z,55.10
2022-12-01T08:19:14.929Z,50.72
2022-12-01T08:21:41.399Z,48.67
2022-12-01T08:24:08.011Z,52.92
2022-12-01T08:26:34.409Z,51.33
2022-12-01T08:29:02.189Z,57.45
2022-12-01T08:31:30.761Z,56.83
2022-12-01T08:33:57.319Z,51.20
2022-12-01T08:36:23.948Z,61.25
2022-12-01T08:38:54.281Z,58.85
2022-12-01T08:41:20.822Z,56.38
2022-12-01T08:43:57.828Z,58.72
2022-12-01T08:46:31.562Z,49.90
2022-12-01T08:48:58.359Z,56.60
2022-12-01T08:51:25.410Z,52.33
2022-12-01T08:53:51.835Z,52.72
2022-12-01T08:56:23.558Z,52.05
2022-12-01T08:58:53.318Z,49.38
2022-12-01T09:01:20.074Z,53.03
2022-12-01T09:03:46.690Z,48.75
2022-12-01T09:06:19.144Z,58.70
2022-12-01T09:08:45.742Z,49.85
2022-12-01T09:11:18.264Z,56.15
2022-12-01T09:13:48.619Z,56.20
2022-12-01T09:16:18.134Z,58.53
2022-12-01T09:18:45.350Z,51.58
2022-12-01T09:21:15.611Z,47.10
2022-12-01T09:23:46.499Z,56.38
2022-12-01T09:26:13.989Z,52.35
2022-12-01T09:28:43.725Z,52.13
2022-12-01T09:33:37.698Z,53.28
2022-12-01T09:36:04.680Z,52.97
2022-12-01T09:38:32.192Z,52.33
2022-12-01T09:41:04.590Z,48.55
2022-12-01T09:43:38.720Z,49.90
2022-12-01T09:46:06.060Z,49.40
2022-12-01T09:48:44.422Z,47.88
2022-12-01T09:51:15.343Z,46.95
2022-12-01T09:53:42.141Z,48.75
2022-12-01T09:56:22.439Z,57.90
2022-12-01T09:59:02.629Z,46.80
2022-12-01T10:01:39.231Z,48.75
2022-12-01T10:04:11.882Z,45.40
2022-12-01T10:06:44.371Z,45.28
2022-12-01T10:09:27.238Z,50.42
2022-12-01T10:11:56.234Z,43.95
2022-12-01T10:14:22.761Z,53.05
2022-12-01T10:16:55.747Z,43.97
2022-12-01T10:19:26.703Z,48.70
2022-12-01T10:21:52.983Z,46.58
2022-12-01T10:24:40.693Z,48.58
2022-12-01T10:29:50.077Z,37.55
2022-12-01T10:32:21.343Z,41.88
2022-12-01T10:34:47.891Z,39.53
2022-12-01T10:37:20.023Z,36.50
2022-12-01T10:39:48.044Z,44.25
2022-12-01T10:42:26.310Z,45.67
2022-12-01T10:44:53.587Z,44.45
2022-12-01T10:47:22.166Z,38.45
2022-12-01T10:49:48.999Z,42.97
2022-12-01T10:52:29.656Z,39.95
2022-12-01T10:54:56.076Z,43.05
2022-12-01T10:57:22.482Z,52.38
2022-12-01T10:59:55.689Z,46.80
2022-12-01T11:02:23.290Z,50.10
2022-12-01T11:05:07.767Z,42.47
2022-12-01T11:07:41.339Z,51.55
2022-12-01T11:10:23.013Z,49.08
2022-12-01T11:12:58.910Z,52.70
2022-12-01T11:20:26.492Z,42.17
2022-12-01T11:22:53.568Z,39.95
2022-12-01T11:25:21.225Z,37.45
2022-12-01T11:27:53.745Z,31.17
2022-12-01T11:30:24.807Z,31.23
2022-12-01T11:33:02.338Z,28.45
2022-12-01T11:35:31.029Z,33.60
2022-12-01T11:40:48.605Z,33.88
2022-12-01T11:43:35.960Z,36.17
2022-12-01T11:46:06.893Z,30.70
2022-12-01T11:48:34.207Z,34.00
2022-12-01T11:51:01.840Z,29.35
2022-12-01T11:53:31.952Z,29.10
2022-12-01T11:56:28.068Z,34.00
2022-12-01T11:59:00.704Z,32.97
2022-12-01T12:02:04.129Z,31.67
2022-12-01T12:04:48.484Z,35.75
2022-12-01T12:07:30.040Z,31.50
2022-12-01T12:10:11.519Z,31.00
2022-12-01T12:13:06.102Z,32.08
2022-12-01T12:16:05.583Z,33.33
2022-12-01T12:21:34.949Z,33.63
2022-12-01T12:27:07.169Z,34.10
2022-12-01T12:29:52.281Z,37.95
2022-12-01T12:32:48.075Z,37.53
2022-12-01T12:35:42.319Z,42.85
2022-12-01T12:38:23.615Z,37.38
2022-12-01T12:40:57.611Z,33.67
2022-12-01T12:43:39.130Z,38.22
2022-12-01T12:46:10.800Z,35.88
2022-12-01T12:49:03.888Z,41.03
2022-12-01T12:51:46.416Z,34.42
2022-12-01T12:54:12.758Z,41.28
2022-12-01T12:56:40.938Z,36.55
2022-12-01T12:59:09.838Z,34.17
2022-12-01T13:01:44.585Z,37.30
2022-12-01T13:04:17.315Z,34.75
2022-12-01T13:07:00.452Z,36.10
2022-12-01T13:09:31.564Z,40.28
2022-12-01T13:12:13.172Z,38.40
2022-12-01T13:14:42.730Z,34.30
2022-12-01T13:17:41.262Z,35.83
2022-12-01T13:20:16.860Z,34.88
2022-12-01T13:22:43.311Z,37.83
2022-12-01T13:25:21.739Z,35.28
2022-12-01T13:27:48.160Z,35.63
2022-12-01T13:30:22.961Z,34.33
2022-12-01T13:32:49.465Z,32.20
2022-12-01T13:35:26.609Z,31.05
2022-12-01T13:37:53.173Z,34.25
2022-12-01T13:40:24.229Z,30.20
2022-12-01T13:43:10.538Z,26.25
2022-12-01T13:45:38.035Z,29.50
2022-12-01T13:48:05.274Z,25.27
2022-12-01T13:50:40.712Z,25.20
2022-12-01T13:53:20.218Z,23.98
2022-12-01T13:56:27.045Z,31.80
2022-12-01T13:58:53.952Z,30.17
2022-12-01T14:01:20.570Z,30.65
2022-12-01T14:04:02.688Z,23.55
2022-12-01T14:09:27.601Z,23.63
2022-12-01T14:11:58.506Z,23.65
2022-12-01T14:14:26.310Z,25.67
2022-12-01T14:16:57.616Z,28.25
2022-12-01T14:19:41.770Z,20.77
2022-12-01T14:22:30.754Z,23.02
2022-12-01T14:24:57.171Z,23.38
2022-12-01T14:27:33.518Z,23.85
2022-12-01T14:30:34.620Z,23.27
2022-12-01T14:33:38.567Z,20.88
2022-12-01T14:36:17.329Z,20.75
2022-12-01T14:38:44.183Z,22.35
2022-12-01T14:41:10.615Z,22.40
2022-12-01T14:43:38.074Z,28.30
2022-12-01T14:46:08.684Z,27.98
2022-12-01T14:48:39.313Z,24.90
2022-12-01T14:51:19.677Z,30.95
2022-12-01T14:53:46.628Z,26.15
2022-12-01T14:56:14.829Z,21.77
2022-12-01T14:58:54.312Z,30.50
2022-12-01T15:01:20.863Z,27.13
2022-12-01T15:03:49.035Z,22.92
2022-12-01T15:06:20.206Z,24.98
2022-12-01T15:09:04.094Z,22.83
2022-12-01T15:11:33.308Z,25.45
2022-12-01T15:13:59.702Z,27.45
2022-12-01T15:16:29.143Z,20.38
2022-12-01T15:18:55.836Z,22.95
2022-12-01T15:21:24.779Z,22.25
2022-12-01T15:24:05.293Z,20.63
2022-12-01T15:26:34.059Z,23.88
2022-12-01T15:29:24.022Z,22.10
2022-12-01T15:31:53.007Z,23.33
2022-12-01T15:34:21.827Z,25.05
2022-12-01T15:36:48.262Z,23.02
2022-12-01T15:39:20.748Z,30.60
2022-12-01T15:41:48.353Z,25.02
2022-12-01T15:44:20.166Z,27.48
2022-12-01T15:46:50.593Z,29.00
2022-12-01T15:49:35.156Z,26.50
2022-12-01T15:52:19.806Z,24.15
2022-12-01T15:54:47.805Z,21.65
2022-12-01T15:57:18.971Z,22.17
2022-12-01T15:59:46.305Z,23.08
2022-12-01T16:02:28.162Z,26.55
2022-12-01T16:05:09.857Z,23.98
2022-12-01T16:08:11.595Z,22.98
2022-12-01T16:10:34.006Z,26.30
2022-12-01T16:13:39.845Z,23.75
2022-12-01T16:16:30.181Z,24.45
2022-12-01T16:19:20.594Z,24.25
2022-12-01T16:21:50.835Z,23.40
2022-12-01T16:24:38.362Z,23.65
2022-12-01T16:27:25.874Z,20.45
2022-12-01T16:30:03.420Z,21.98
2022-12-01T16:32:37.523Z,20.92
2022-12-01T16:35:19.508Z,25.95
2022-12-01T16:37:45.911Z,26.25
2022-12-01T16:40:13.310Z,22.60
2022-12-01T16:42:39.715Z,24.58
2022-12-01T16:45:06.578Z,21.77
2022-12-01T16:47:32.986Z,24.15
2022-12-01T16:49:59.451Z,26.30
2022-12-01T16:55:36.406Z,28.08
2022-12-01T16:58:02.802Z,26.30
2022-12-01T17:00:29.375Z,27.70
2022-12-01T17:02:55.898Z,22.55
2022-12-01T17:05:22.389Z,28.95
2022-12-01T17:07:48.847Z,31.70
2022-12-01T17:10:15.426Z,31.42
2022-12-01T17:12:41.832Z,34.22
2022-12-01T17:15:08.625Z,32.67
2022-12-01T17:17:35.039Z,38.03
2022-12-01T17:20:01.811Z,36.22
2022-12-01T17:22:28.307Z,34.08
2022-12-01T17:24:56.056Z,37.65
2022-12-01T17:27:23.245Z,32.65
2022-12-01T17:29:49.642Z,37.80
2022-12-01T17:32:16.070Z,39.65
2022-12-01T17:34:42.485Z,37.25
2022-12-01T17:37:08.942Z,40.45
2022-12-01T17:39:37.471Z,41.20
2022-12-01T17:42:05.057Z,36.67
2022-12-01T17:44:31.474Z,36.42
2022-12-01T17:46:57.875Z,38.92
2022-12-01T17:49:24.314Z,38.65
2022-12-01T17:51:50.753Z,37.35
2022-12-01T17:54:17.219Z,32.80
2022-12-01T17:56:43.628Z,40.80
2022-12-01T17:59:10.052Z,34.30
2022-12-01T18:01:36.666Z,40.15
2022-12-01T18:04:03.590Z,38.00
2022-12-01T18:06:29.994Z,41.30
2022-12-01T18:08:56.391Z,40.78
2022-12-01T18:11:22.906Z,40.92
2022-12-01T18:13:49.911Z,40.30
2022-12-01T18:16:18.305Z,34.80
2022-12-01T18:18:44.738Z,38.05
2022-12-01T18:21:12.826Z,35.72
2022-12-01T18:23:39.276Z,33.17
2022-12-01T18:26:12.160Z,36.35
2022-12-01T18:28:41.738Z,35.47
2022-12-01T18:31:14.055Z,37.30
2022-12-01T18:33:41.338Z,32.40
2022-12-01T18:36:19.275Z,32.40
2022-12-01T18:38:45.867Z,28.75
2022-12-01T18:41:12.282Z,31.42
2022-12-01T18:43:38.715Z,32.67
2022-12-01T18:46:05.718Z,25.38
2022-12-01T18:48:32.543Z,27.90
2022-12-01T18:51:05.897Z,28.67
2022-12-01T18:53:32.439Z,34.75
2022-12-01T18:56:06.198Z,30.13
2022-12-01T18:58:32.698Z,29.35
2022-12-01T19:00:59.681Z,25.60
2022-12-01T19:03:31.367Z,25.08
2022-12-01T19:05:58.070Z,29.70
2022-12-01T19:08:24.742Z,24.73
2022-12-01T19:11:02.622Z,30.80
2022-12-01T19:13:29.787Z,29.38
2022-12-01T19:15:57.431Z,28.33
2022-12-01T19:18:23.884Z,29.75
2022-12-01T19:20:50.388Z,32.60
2022-12-01T19:23:16.914Z,29.25
2022-12-01T19:25:49.887Z,26.30
2022-12-01T19:28:16.304Z,33.30
2022-12-01T19:30:47.956Z,32.13
2022-12-01T19:33:14.995Z,31.23
2022-12-01T19:35:41.737Z,30.25
2022-12-01T19:38:08.185Z,29.10
2022-12-01T19:40:37.047Z,29.40
2022-12-01T19:43:03.517Z,27.30
2022-12-01T19:45:30.131Z,29.35
2022-12-01T19:47:58.971Z,26.30
2022-12-01T19:50:25.406Z,31.77
2022-12-01T19:52:51.798Z,30.27
2022-12-01T19:55:18.251Z,29.63
2022-12-01T19:57:44.666Z,32.33
2022-12-01T20:00:11.744Z,33.97
2022-12-01T20:02:39.334Z,31.45
2022-12-01T20:05:06.256Z,32.42
2022-12-01T20:07:32.878Z,34.47
2022-12-01T20:09:59.342Z,34.50
2022-12-01T20:12:33.689Z,34.33
2022-12-01T20:15:00.473Z,31.48
2022-12-01T20:17:27.638Z,30.77
2022-12-01T20:19:54.057Z,27.42
2022-12-01T20:22:22.822Z,32.25
2022-12-01T20:24:49.426Z,32.53
2022-12-01T20:27:16.070Z,31.50
2022-12-01T20:29:43.489Z,26.08
2022-12-01T20:32:09.989Z,27.00
2022-12-01T20:34:36.533Z,29.58
2022-12-01T20:37:03.032Z,30.50
2022-12-01T20:39:30.564Z,32.22
2022-12-01T20:41:58.602Z,37.47
2022-12-01T20:44:25.019Z,36.40
2022-12-01T20:46:51.516Z,33.92
2022-12-01T20:49:18.177Z,34.15
2022-12-01T20:51:44.774Z,31.55
2022-12-01T20:54:29.117Z,30.13
2022-12-01T20:56:56.119Z,35.30
2022-12-01T20:59:23.099Z,32.05
2022-12-01T21:01:49.638Z,30.85
2022-12-01T21:04:16.036Z,34.58
2022-12-01T21:06:42.462Z,36.55
2022-12-01T21:09:08.857Z,35.45
2022-12-01T21:11:43.516Z,30.60
2022-12-01T21:14:38.378Z,29.60
2022-12-01T21:17:32.555Z,30.30
2022-12-01T21:20:09.940Z,34.67
2022-12-01T21:22:36.475Z,34.50
2022-12-01T21:25:10.295Z,36.15
2022-12-01T21:27:36.737Z,37.15
2022-12-01T21:30:07.413Z,36.58
2022-12-01T21:32:34.351Z,41.15
2022-12-01T21:35:03.402Z,36.17
2022-12-01T21:37:29.826Z,34.88
2022-12-01T21:40:00.775Z,37.47
2022-12-01T21:42:27.952Z,37.80
2022-12-01T21:44:55.542Z,39.03
2022-12-01T21:47:23.905Z,33.65
2022-12-01T21:49:52.703Z,38.90
2022-12-01T21:52:21.360Z,39.70
2022-12-01T21:54:47.968Z,35.55
2022-12-01T21:57:23.664Z,33.13
2022-12-01T21:59:50.635Z,34.80
2022-12-01T22:02:50.292Z,31.70
2022-12-01T22:05:33.610Z,33.72
2022-12-01T22:08:24.287Z,30.02
2022-12-01T22:11:02.890Z,26.65
2022-12-01T22:14:00.435Z,27.08
2022-12-01T22:16:34.210Z,29.67
2022-12-01T22:19:21.229Z,30.33
2022-12-01T22:22:06.357Z,32.63
2022-12-01T22:24:40.460Z,30.10
2022-12-01T22:27:28.310Z,31.95
2022-12-01T22:32:30.062Z,28.65
2022-12-01T22:34:57.915Z,30.58
2022-12-01T22:37:29.186Z,30.58
2022-12-01T22:39:56.003Z,31.83
2022-12-01T22:42:30.030Z,34.80
2022-12-01T22:44:59.539Z,31.35
2022-12-01T22:47:27.303Z,33.33
2022-12-01T22:49:53.779Z,32.65
2022-12-01T22:52:27.768Z,31.35
2022-12-01T22:54:54.174Z,43.22
2022-12-01T22:57:28.825Z,38.13
2022-12-01T22:59:55.225Z,41.47
2022-12-01T23:02:25.174Z,37.70
2022-12-01T23:07:35.867Z,25.88
2022-12-01T23:10:22.495Z,34.03
2022-12-01T23:12:50.649Z,31.75
2022-12-01T23:15:22.261Z,30.67
2022-12-01T23:17:49.030Z,33.50
2022-12-01T23:20:24.363Z,29.73
2022-12-01T23:22:53.790Z,27.85
2022-12-01T23:25:20.261Z,30.58
2022-12-01T23:27:47.914Z,37.97
2022-12-01T23:30:15.064Z,32.40
2022-12-01T23:32:41.651Z,27.38
2022-12-01T23:35:13.255Z,36.20
2022-12-01T23:37:40.852Z,40.03
2022-12-01T23:40:32.430Z,32.00
2022-12-01T23:43:20.983Z,31.25
2022-12-01T23:45:48.234Z,32.15
2022-12-01T23:48:20.257Z,32.42
2022-12-01T23:50:47.765Z,27.98
2022-12-01T23:53:25.612Z,29.48
2022-12-01T23:55:52.051Z,28.90
2022-12-01T23:58:18.609Z,24.27
